Time;durP1;ratioP1;P1;durP2;ratioP2;P2;SDS_P1;SDS_P2;PMS_P1;PMS_P2;Temp;Humidity;BMP_temperature;BMP_pressure;BME280_temperature;BME280_humidity;BME280_pressure;Samples;Min_cycle;Max_cycle;Signal;HPM_P1;HPM_P2
2023/03/16 00:01:25;;;;;;;;;;;;;;;-0.33;81.65;98477.19;5081728;28;20365;-56
2023/03/16 00:03:53;;;;;;;;;;;;;;;-0.36;80.75;98488.34;5100580;28;20440;-56
2023/03/16 00:06:21;;;;;;;;;;;;;;;-0.55;81.55;98484.88;5100001;28;19927;-57
2023/03/16 00:08:51;;;;;;;;;;;;;;;-0.60;81.49;98477.53;5104295;28;19949;-56
2023/03/16 00:11:20;;;;;;;;;;;;;;;-0.94;81.80;98475.53;5097764;28;19925;-56
2023/03/16 00:13:50;;;;;;;;;;;;;;;-0.88;81.92;98478.09;5092071;28;19928;-56
2023/03/16 00:16:18;;;;;;;;;;;;;;;-0.72;81.31;98481.22;5108958;28;19927;-56
2023/03/16 00:18:46;;;;;;;;;;;;;;;-0.84;81.12;98478.47;5102008;28;19983;-56
2023/03/16 00:21:14;;;;;;;;;;;;;;;-0.94;81.35;98467.53;5083769;28;19931;-56
2023/03/16 00:23:42;;;;;;;;;;;;;;;-0.95;81.70;98466.72;5088039;28;19925;-56
2023/03/16 00:26:11;;;;;;;;;;;;;;;-0.95;82.01;98474.72;5091268;28;20567;-57
2023/03/16 00:28:41;;;;;;;;;;;;;;;-0.92;82.06;98478.78;5100020;28;19924;-56
2023/03/16 00:31:13;;;;;;;;;;;;;;;-0.93;80.98;98479.81;5073654;28;19931;-56
2023/03/16 00:33:45;;;;;;;;;;;;;;;-0.94;80.84;98476.34;5089613;28;19949;-56
2023/03/16 00:36:13;;;;;;;;;;;;;;;-0.97;81.23;98474.09;5081267;28;19924;-56
2023/03/16 00:38:43;;;;;;;;;;;;;;;-0.87;81.17;98476.25;5078030;28;19966;-57
2023/03/16 00:41:13;;;;;;;;;;;;;;;-0.97;80.96;98474.09;5083682;28;19924;-57
2023/03/16 00:43:42;;;;;;;;;;;;;;;-0.86;80.80;98473.34;5073402;28;19924;-57
2023/03/16 00:46:12;;;;;;;;;;;;;;;-0.81;80.67;98472.69;5076682;28;19936;-56
2023/03/16 00:48:41;;;;;;;;;;;;;;;-0.93;80.30;98466.47;5086650;28;19931;-56
2023/03/16 00:51:11;;;;;;;;;;;;;;;-0.90;80.37;98468.72;5086667;28;19924;-56
2023/03/16 00:53:40;;;;;;;;;;;;;;;-1.06;80.26;98460.28;5074598;28;19924;-56
2023/03/16 00:56:08;;;;;;;;;;;;;;;-1.06;80.69;98454.94;5086888;28;19935;-56
2023/03/16 00:58:37;;;;;;;;;;;;;;;-1.11;79.90;98470.78;5088776;28;19928;-56
2023/03/16 01:01:06;;;;;;;;;;;;;;;-1.08;80.22;98462.31;5087475;28;19928;-56
2023/03/16 01:03:35;;;;;;;;;;;;;;;-1.30;80.89;98460.34;5093030;28;19932;-56
2023/03/16 01:06:04;;;;;;;;;;;;;;;-1.06;81.04;98454.94;5084105;28;20335;-56
2023/03/16 01:08:32;;;;;;;;;;;;;;;-1.05;80.43;98455.75;5076203;28;19928;-56
2023/03/16 01:11:04;;;;;;;;;;;;;;;-1.19;80.56;98452.41;5088691;28;19924;-56
2023/03/16 01:13:32;;;;;;;;;;;;;;;-1.27;80.69;98450.06;5088442;28;19963;-56
2023/03/16 01:16:00;;;;;;;;;;;;;;;-1.41;81.34;98457.34;5089132;28;19949;-56
2023/03/16 01:18:28;;;;;;;;;;;;;;;-1.49;81.54;98463.00;5087048;28;19925;-56
2023/03/16 01:20:57;;;;;;;;;;;;;;;-1.60;81.62;98461.88;5097065;28;19935;-56
2023/03/16 01:23:25;;;;;;;;;;;;;;;-1.44;81.46;98456.97;5087087;28;19934;-56
2023/03/16 01:25:55;;;;;;;;;;;;;;;-1.61;81.66;98462.88;5102090;28;19977;-56
2023/03/16 01:28:24;;;;;;;;;;;;;;;-1.39;81.44;98459.78;5091098;28;19924;-56
2023/03/16 01:30:54;;;;;;;;;;;;;;;-1.37;81.14;98463.06;5079993;28;20011;-57
2023/03/16 01:33:22;;;;;;;;;;;;;;;-1.50;81.02;98461.34;5082777;28;19928;-56
2023/03/16 01:35:53;;;;;;;;;;;;;;;-1.47;81.54;98471.56;5084378;28;19924;-56
2023/03/16 01:38:23;;;;;;;;;;;;;;;-1.73;81.66;98477.94;5074782;28;19974;-56
2023/03/16 01:40:52;;;;;;;;;;;;;;;-1.46;81.61;98473.19;5078715;28;19928;-56
2023/03/16 01:43:21;;;;;;;;;;;;;;;-1.46;81.45;98475.03;5072406;28;19929;-56
2023/03/16 01:46:20;;;;;;;;;;;;;;;-1.52;81.47;98476.75;5083756;28;20433;-56
2023/03/16 01:48:55;;;;;;;;;;;;;;;-1.71;82.22;98475.88;5092127;28;19935;-56
2023/03/16 01:51:27;;;;;;;;;;;;;;;-1.56;82.49;98472.88;5089685;28;20005;-56
2023/03/16 01:53:58;;;;;;;;;;;;;;;-1.47;82.16;98468.91;5105682;28;19977;-56
2023/03/16 01:56:26;;;;;;;;;;;;;;;-1.43;82.30;98462.09;5085019;28;19925;-56
2023/03/16 01:58:57;;;;;;;;;;;;;;;-1.62;82.00;98463.09;5083819;28;19924;-56
2023/03/16 02:01:29;;;;;;;;;;;;;;;-1.49;81.42;98467.47;5082527;28;19932;-56
2023/03/16 02:04:02;;;;;;;;;;;;;;;-1.58;81.90;98459.78;5092049;28;19929;-57
2023/03/16 02:06:31;;;;;;;;;;;;;;;-1.60;81.33;98461.88;5071442;28;19924;-56
2023/03/16 02:09:00;;;;;;;;;;;;;;;-1.69;81.41;98457.03;5079756;28;20009;-56
2023/03/16 02:11:28;;;;;;;;;;;;;;;-1.71;80.92;98453.75;5099824;28;19993;-56
2023/03/16 02:14:05;;;;;;;;;;;;;;;-1.81;81.56;98443.63;5096764;28;20374;-56
2023/03/16 02:16:33;;;;;;;;;;;;;;;-1.52;80.90;98443.97;5080705;28;19931;-56
2023/03/16 02:19:01;;;;;;;;;;;;;;;-1.73;80.88;98446.00;5089659;28;19928;-56
2023/03/16 02:21:31;;;;;;;;;;;;;;;-1.94;81.17;98455.19;5087701;28;20015;-56
2023/03/16 02:24:02;;;;;;;;;;;;;;;-1.92;81.46;98458.47;5074056;28;19947;-56
2023/03/16 02:26:32;;;;;;;;;;;;;;;-1.87;81.27;98457.78;5086441;28;19931;-56
2023/03/16 02:29:03;;;;;;;;;;;;;;;-1.81;81.34;98456.94;5086302;28;20289;-56
2023/03/16 02:31:32;;;;;;;;;;;;;;;-1.92;81.29;98455.78;5076512;28;19924;-56
2023/03/16 02:34:01;;;;;;;;;;;;;;;-2.00;81.59;98456.06;5077425;28;19970;-57
2023/03/16 02:36:29;;;;;;;;;;;;;;;-1.85;81.64;98458.41;5080108;28;20305;-56
2023/03/16 02:38:57;;;;;;;;;;;;;;;-1.89;81.24;98457.19;5090199;28;19963;-56
2023/03/16 02:41:26;;;;;;;;;;;;;;;-1.94;81.30;98459.69;5091107;28;19929;-56
2023/03/16 02:43:58;;;;;;;;;;;;;;;-1.95;81.78;98463.41;5077699;28;19967;-56
2023/03/16 02:46:34;;;;;;;;;;;;;;;-1.88;81.11;98453.50;5084839;28;20368;-60
2023/03/16 02:49:04;;;;;;;;;;;;;;;-1.89;81.52;98451.88;5083626;28;19932;-56
2023/03/16 02:51:32;;;;;;;;;;;;;;;-1.90;81.36;98456.38;5087533;28;19928;-56
2023/03/16 02:54:00;;;;;;;;;;;;;;;-1.95;81.73;98458.06;5094120;28;19931;-57
2023/03/16 02:56:31;;;;;;;;;;;;;;;-1.94;81.48;98454.38;5095567;28;19994;-57
2023/03/16 02:58:59;;;;;;;;;;;;;;;-2.00;81.86;98455.25;5106331;28;19924;-56
2023/03/16 03:01:27;;;;;;;;;;;;;;;-2.05;81.83;98444.41;5077298;28;19928;-56
2023/03/16 03:03:59;;;;;;;;;;;;;;;-2.05;82.08;98441.75;5085029;28;19927;-56
2023/03/16 03:06:38;;;;;;;;;;;;;;;-1.90;81.95;98447.56;5075150;28;19930;-56
2023/03/16 03:09:06;;;;;;;;;;;;;;;-1.85;80.96;98453.06;5086265;28;19924;-56
2023/03/16 03:11:33;;;;;;;;;;;;;;;-1.84;81.27;98441.38;5103659;28;19924;-56
2023/03/16 03:14:01;;;;;;;;;;;;;;;-1.77;81.25;98434.13;5108309;28;19931;-59
2023/03/16 03:16:30;;;;;;;;;;;;;;;-1.63;80.44;98438.31;5085965;28;19954;-56
2023/03/16 03:18:59;;;;;;;;;;;;;;;-1.79;80.58;98436.22;5084332;28;19935;-56
2023/03/16 03:21:30;;;;;;;;;;;;;;;-1.88;80.15;98426.88;5089999;28;20014;-56
2023/03/16 03:24:00;;;;;;;;;;;;;;;-1.86;80.52;98440.78;5093207;28;19928;-56
2023/03/16 03:26:28;;;;;;;;;;;;;;;-1.75;80.23;98441.94;5103370;28;19927;-56
2023/03/16 03:28:59;;;;;;;;;;;;;;;-1.74;80.40;98439.03;5082830;28;19931;-56
2023/03/16 03:31:27;;;;;;;;;;;;;;;-1.96;80.60;98441.28;5081210;28;19928;-56
2023/03/16 03:33:57;;;;;;;;;;;;;;;-2.05;80.91;98449.75;5082184;28;19924;-56
2023/03/16 03:36:26;;;;;;;;;;;;;;;-2.08;81.12;98450.16;5105599;28;19973;-56
2023/03/16 03:38:54;;;;;;;;;;;;;;;-2.21;81.82;98449.25;5082995;28;20365;-56
2023/03/16 03:41:22;;;;;;;;;;;;;;;-2.05;81.37;98453.22;5089647;28;20385;-56
2023/03/16 03:43:52;;;;;;;;;;;;;;;-2.02;81.65;98457.31;5087778;28;19935;-56
2023/03/16 03:46:19;;;;;;;;;;;;;;;-1.99;81.55;98454.19;5098165;28;20013;-56
2023/03/16 03:48:48;;;;;;;;;;;;;;;-2.04;81.67;98456.69;5104320;28;19941;-56
2023/03/16 03:51:16;;;;;;;;;;;;;;;-2.20;81.97;98456.19;5085926;28;20373;-56
2023/03/16 03:54:07;;;;;;;;;;;;;;;-2.24;81.87;98454.97;5100506;28;19928;-56
2023/03/16 03:57:01;;;;;;;;;;;;;;;-2.17;82.02;98455.78;5098135;28;19931;-56
2023/03/16 03:59:29;;;;;;;;;;;;;;;-2.05;81.52;98458.53;5108306;28;19931;-56
2023/03/16 04:02:12;;;;;;;;;;;;;;;-2.12;81.53;98458.59;5104924;28;19928;-56
2023/03/16 04:04:52;;;;;;;;;;;;;;;-2.09;81.38;98452.03;5102510;28;19935;-56
2023/03/16 04:07:21;;;;;;;;;;;;;;;-2.18;81.70;98445.34;5081442;28;20513;-57
2023/03/16 04:09:52;;;;;;;;;;;;;;;-2.08;81.77;98447.50;5108451;28;19928;-56
2023/03/16 04:12:26;;;;;;;;;;;;;;;-2.09;80.96;98445.88;5090423;28;20014;-55
2023/03/16 04:14:55;;;;;;;;;;;;;;;-2.15;81.41;98442.25;5108309;28;19951;-56
2023/03/16 04:17:25;;;;;;;;;;;;;;;-2.26;81.34;98434.97;5104211;28;19928;-57
2023/03/16 04:19:55;;;;;;;;;;;;;;;-2.18;81.19;98438.19;5077436;28;19925;-56
2023/03/16 04:22:23;;;;;;;;;;;;;;;-2.11;80.83;98435.47;5101522;28;19939;-56
2023/03/16 04:24:52;;;;;;;;;;;;;;;-2.16;81.15;98422.78;5089900;28;19935;-56
2023/03/16 04:27:24;;;;;;;;;;;;;;;-2.25;80.97;98426.75;5080144;28;19924;-56
2023/03/16 04:29:54;;;;;;;;;;;;;;;-2.32;81.28;98419.84;5082190;28;19924;-56
2023/03/16 04:32:25;;;;;;;;;;;;;;;-2.11;80.79;98422.97;5104225;28;19923;-56
2023/03/16 04:34:55;;;;;;;;;;;;;;;-2.21;80.89;98419.97;5100182;28;19973;-56
2023/03/16 04:37:33;;;;;;;;;;;;;;;-2.19;80.86;98417.06;5090182;28;19928;-56
2023/03/16 04:40:08;;;;;;;;;;;;;;;-2.08;80.62;98421.69;5105724;28;19924;-56
2023/03/16 04:42:38;;;;;;;;;;;;;;;-2.13;80.18;98411.72;5083422;28;19971;-56
2023/03/16 04:45:10;;;;;;;;;;;;;;;-2.24;80.47;98419.56;5084431;28;19931;-56
2023/03/16 04:47:38;;;;;;;;;;;;;;;-2.29;80.67;98408.75;5077775;28;19935;-56
2023/03/16 04:50:07;;;;;;;;;;;;;;;-2.42;81.72;98420.31;5082619;28;19967;-56
2023/03/16 04:52:35;;;;;;;;;;;;;;;-2.37;81.01;98420.50;5086521;28;19931;-56
2023/03/16 04:55:05;;;;;;;;;;;;;;;-2.37;81.28;98410.66;5091136;28;19924;-56
2023/03/16 04:57:33;;;;;;;;;;;;;;;-2.20;81.04;98418.13;5090311;28;19930;-57
2023/03/16 05:00:08;;;;;;;;;;;;;;;-2.25;80.51;98416.09;5086679;28;19978;-56
2023/03/16 05:02:41;;;;;;;;;;;;;;;-2.30;80.50;98423.09;5082246;28;19931;-56
2023/03/16 05:05:10;;;;;;;;;;;;;;;-2.31;80.95;98416.97;5105043;28;19931;-55
2023/03/16 05:07:41;;;;;;;;;;;;;;;-2.30;80.76;98412.47;5077752;28;19924;-55
2023/03/16 05:10:12;;;;;;;;;;;;;;;-2.26;80.82;98414.47;5079594;28;19929;-56
2023/03/16 05:12:39;;;;;;;;;;;;;;;-2.26;80.82;98413.66;5090017;28;19931;-56
2023/03/16 05:15:08;;;;;;;;;;;;;;;-2.19;80.48;98412.56;5090042;28;20005;-56
2023/03/16 05:17:40;;;;;;;;;;;;;;;-2.24;80.72;98415.06;5088719;28;19924;-56
2023/03/16 05:20:12;;;;;;;;;;;;;;;-2.23;80.88;98410.59;5083914;28;19940;-58
2023/03/16 05:22:47;;;;;;;;;;;;;;;-2.24;80.91;98411.59;5108249;28;20015;-56
2023/03/16 05:25:22;;;;;;;;;;;;;;;-2.26;80.58;98406.50;5091095;28;19970;-56
2023/03/16 05:27:54;;;;;;;;;;;;;;;-2.16;80.46;98414.81;5086444;28;20364;-55
2023/03/16 05:30:30;;;;;;;;;;;;;;;-2.16;80.15;98409.47;5080408;28;19931;-56
2023/03/16 05:33:02;;;;;;;;;;;;;;;-2.18;80.13;98403.56;5081855;28;19963;-56
2023/03/16 05:35:31;;;;;;;;;;;;;;;-2.30;80.61;98407.94;5075891;28;20293;-56
2023/03/16 05:38:04;;;;;;;;;;;;;;;-2.20;80.38;98408.28;5095785;28;19924;-54
2023/03/16 05:40:36;;;;;;;;;;;;;;;-2.22;80.68;98399.72;5077786;28;19924;-54
2023/03/16 05:43:13;;;;;;;;;;;;;;;-2.07;79.84;98401.25;5074083;28;19940;-54
2023/03/16 05:45:46;;;;;;;;;;;;;;;-2.08;79.79;98412.91;5078558;28;19979;-55
2023/03/16 05:48:17;;;;;;;;;;;;;;;-1.98;78.92;98406.03;5081234;28;19935;-54
2023/03/16 05:50:48;;;;;;;;;;;;;;;-1.94;78.80;98409.91;5074684;28;19932;-55
2023/03/16 05:53:19;;;;;;;;;;;;;;;-2.18;79.41;98408.91;5081493;28;19961;-53
2023/03/16 05:55:52;;;;;;;;;;;;;;;-2.08;79.58;98405.72;5080598;28;20059;-55
2023/03/16 05:58:21;;;;;;;;;;;;;;;-2.14;79.69;98415.41;5085316;28;19928;-54
2023/03/16 06:00:50;;;;;;;;;;;;;;;-2.02;79.26;98420.03;5089944;28;19939;-54
2023/03/16 06:03:24;;;;;;;;;;;;;;;-2.03;79.41;98421.03;5080625;28;19928;-54
2023/03/16 06:05:53;;;;;;;;;;;;;;;-2.02;79.71;98412.06;5089870;28;20378;-54
2023/03/16 06:08:30;;;;;;;;;;;;;;;-2.07;79.78;98407.38;5081210;28;19939;-55
2023/03/16 06:11:10;;;;;;;;;;;;;;;-1.91;78.68;98411.34;5078462;28;20250;-53
2023/03/16 06:13:38;;;;;;;;;;;;;;;-1.92;79.09;98415.00;5096545;28;19924;-54
2023/03/16 06:16:07;;;;;;;;;;;;;;;-1.92;79.01;98409.69;5085030;28;19993;-54
2023/03/16 06:18:35;;;;;;;;;;;;;;;-1.94;79.23;98417.09;5081690;28;19986;-54
2023/03/16 06:21:04;;;;;;;;;;;;;;;-1.83;78.90;98412.91;5089103;28;20067;-54
2023/03/16 06:23:33;;;;;;;;;;;;;;;-1.81;79.44;98414.31;5071822;28;19932;-55
2023/03/16 06:26:02;;;;;;;;;;;;;;;-1.70;78.87;98418.91;5084457;28;19924;-54
2023/03/16 06:28:34;;;;;;;;;;;;;;;-1.60;78.78;98424.56;5074474;28;19933;-54
2023/03/16 06:31:02;;;;;;;;;;;;;;;-1.28;77.47;98435.06;5089019;28;19924;-54
2023/03/16 06:33:34;;;;;;;;;;;;;;;-1.27;77.64;98442.06;5087355;28;19946;-54
2023/03/16 06:36:03;;;;;;;;;;;;;;;-1.31;77.68;98443.53;5079075;28;19932;-54
2023/03/16 06:38:36;;;;;;;;;;;;;;;-1.24;78.04;98444.25;5078012;28;19931;-55
2023/03/16 06:41:22;;;;;;;;;;;;;;;-1.19;77.61;98432.94;5068178;28;20315;-59
2023/03/16 06:43:51;;;;;;;;;;;;;;;-1.16;77.97;98438.66;5073074;28;19928;-54
2023/03/16 06:46:22;;;;;;;;;;;;;;;-1.06;77.79;98441.59;5070346;28;19932;-54
2023/03/16 06:48:50;;;;;;;;;;;;;;;-0.89;77.38;98439.13;5068517;28;20262;-54
2023/03/16 06:51:19;;;;;;;;;;;;;;;-0.46;75.61;98438.16;5068593;28;19932;-55
2023/03/16 06:53:49;;;;;;;;;;;;;;;-0.55;75.50;98440.31;5065185;28;20157;-55
2023/03/16 06:56:17;;;;;;;;;;;;;;;-0.36;75.29;98434.94;5066588;28;19928;-55
2023/03/16 06:58:46;;;;;;;;;;;;;;;-0.22;74.59;98428.34;5081637;28;19927;-56
2023/03/16 07:01:16;;;;;;;;;;;;;;;-0.41;75.06;98438.28;5082603;28;19924;-54
2023/03/16 07:03:46;;;;;;;;;;;;;;;-0.48;75.09;98439.41;5062127;28;20340;-55
2023/03/16 07:06:19;;;;;;;;;;;;;;;-0.38;75.62;98440.50;5064192;28;19981;-54
2023/03/16 07:08:47;;;;;;;;;;;;;;;-0.25;75.16;98447.50;5063882;28;19950;-55
2023/03/16 07:11:19;;;;;;;;;;;;;;;-0.22;75.15;98441.69;5075659;28;19955;-55
2023/03/16 07:13:47;;;;;;;;;;;;;;;-0.21;75.29;98438.00;5082699;28;19925;-55
2023/03/16 07:16:17;;;;;;;;;;;;;;;-0.31;74.87;98448.41;5064866;28;19924;-54
2023/03/16 07:18:46;;;;;;;;;;;;;;;-0.24;75.44;98457.13;5078775;28;19981;-54
2023/03/16 07:21:15;;;;;;;;;;;;;;;-0.20;74.79;98452.97;5076307;28;20298;-54
2023/03/16 07:23:44;;;;;;;;;;;;;;;-0.07;74.57;98450.09;5068937;28;19939;-54
2023/03/16 07:26:15;;;;;;;;;;;;;;;0.01;74.72;98451.63;5067560;28;19931;-54
2023/03/16 07:28:50;;;;;;;;;;;;;;;0.49;73.64;98447.94;5068189;28;19939;-55
2023/03/16 07:31:19;;;;;;;;;;;;;;;0.50;74.00;98450.38;5066592;28;19982;-54
2023/03/16 07:33:48;;;;;;;;;;;;;;;0.88;72.27;98446.38;5068948;28;19924;-54
2023/03/16 07:36:24;;;;;;;;;;;;;;;1.08;72.09;98445.19;5086648;28;19935;-54
2023/03/16 07:38:56;;;;;;;;;;;;;;;0.71;73.19;98445.50;5074910;28;20297;-56
2023/03/16 07:41:24;;;;;;;;;;;;;;;0.93;73.08;98449.16;5084244;28;19931;-54
2023/03/16 07:43:52;;;;;;;;;;;;;;;1.02;72.83;98458.47;5087635;28;19923;-54
2023/03/16 07:46:25;;;;;;;;;;;;;;;1.05;73.02;98447.28;5106556;28;19924;-54
2023/03/16 07:48:53;;;;;;;;;;;;;;;1.25;72.38;98451.41;5098132;28;20297;-55
2023/03/16 07:51:21;;;;;;;;;;;;;;;1.41;71.90;98444.50;5091745;28;19980;-55
2023/03/16 07:53:49;;;;;;;;;;;;;;;1.18;71.99;98442.72;5090301;28;20007;-55
2023/03/16 07:56:23;;;;;;;;;;;;;;;1.26;72.82;98447.69;5095728;28;19923;-54
2023/03/16 07:58:54;;;;;;;;;;;;;;;1.44;72.34;98446.69;5103454;28;20392;-54
2023/03/16 08:01:23;;;;;;;;;;;;;;;1.41;72.82;98450.66;5075414;28;19931;-54
2023/03/16 08:03:53;;;;;;;;;;;;;;;1.58;72.13;98445.34;5084126;28;19939;-54
2023/03/16 08:06:21;;;;;;;;;;;;;;;2.00;71.81;98445.81;5092409;28;19974;-55
2023/03/16 08:08:49;;;;;;;;;;;;;;;2.08;71.14;98447.31;5101775;28;19931;-55
2023/03/16 08:11:29;;;;;;;;;;;;;;;2.18;71.25;98447.44;5083579;28;19928;-55
2023/03/16 08:14:01;;;;;;;;;;;;;;;2.54;70.46;98438.09;5077630;28;19956;-55
2023/03/16 08:16:51;;;;;;;;;;;;;;;2.45;71.28;98439.59;5080119;28;19932;-56
2023/03/16 08:19:21;;;;;;;;;;;;;;;2.59;70.43;98440.03;5099004;28;20432;-55
2023/03/16 08:21:50;;;;;;;;;;;;;;;2.62;70.93;98440.34;5078223;28;20431;-54
2023/03/16 08:24:34;;;;;;;;;;;;;;;2.68;71.10;98437.75;5087415;28;19977;-54
2023/03/16 08:27:04;;;;;;;;;;;;;;;3.12;69.22;98438.59;5087864;28;19932;-54
2023/03/16 08:29:34;;;;;;;;;;;;;;;3.26;68.20;98447.09;5077511;28;19939;-55
2023/03/16 08:32:04;;;;;;;;;;;;;;;3.06;68.58;98437.72;5074045;28;19930;-55
2023/03/16 08:34:40;;;;;;;;;;;;;;;3.40;68.21;98442.94;5108204;28;19984;-54
2023/03/16 08:37:10;;;;;;;;;;;;;;;3.61;67.17;98449.34;5101248;28;19955;-55
2023/03/16 08:39:40;;;;;;;;;;;;;;;3.48;66.80;98442.50;5096114;28;19935;-57
2023/03/16 08:42:14;;;;;;;;;;;;;;;3.61;66.44;98442.09;5104617;28;19932;-54
2023/03/16 08:44:49;;;;;;;;;;;;;;;3.81;66.23;98438.81;5090106;28;19939;-55
2023/03/16 08:47:18;;;;;;;;;;;;;;;3.89;66.40;98440.25;5081027;28;19924;-54
2023/03/16 08:49:49;;;;;;;;;;;;;;;4.29;64.67;98430.88;5108185;28;19955;-55
2023/03/16 08:52:18;;;;;;;;;;;;;;;4.13;63.28;98428.06;5086605;28;19974;-55
2023/03/16 08:54:47;;;;;;;;;;;;;;;4.43;62.02;98434.75;5107528;28;19955;-54
2023/03/16 08:57:29;;;;;;;;;;;;;;;4.44;62.00;98428.31;5093351;28;19928;-54
2023/03/16 08:59:57;;;;;;;;;;;;;;;4.75;60.40;98420.44;5092387;28;19977;-55
2023/03/16 09:02:28;;;;;;;;;;;;;;;4.95;59.34;98423.19;5100271;28;19977;-55
2023/03/16 09:04:57;;;;;;;;;;;;;;;5.02;58.96;98423.78;5099555;28;19938;-54
2023/03/16 09:07:27;;;;;;;;;;;;;;;5.22;57.88;98423.88;5098698;28;19924;-55
2023/03/16 09:09:54;;;;;;;;;;;;;;;4.98;57.78;98428.06;5104779;28;19924;-54
2023/03/16 09:12:22;;;;;;;;;;;;;;;4.93;57.67;98430.75;5104514;28;19928;-62
2023/03/16 09:14:50;;;;;;;;;;;;;;;5.14;55.18;98431.66;5102095;28;20241;-55
2023/03/16 09:17:19;;;;;;;;;;;;;;;4.95;55.89;98431.28;5099039;28;19928;-54
2023/03/16 09:19:49;;;;;;;;;;;;;;;4.84;56.27;98432.31;5101478;28;19931;-54
2023/03/16 09:22:21;;;;;;;;;;;;;;;4.67;55.64;98427.09;5104405;28;19928;-54
2023/03/16 09:24:50;;;;;;;;;;;;;;;5.13;55.52;98427.34;5101392;28;19974;-55
2023/03/16 09:27:19;;;;;;;;;;;;;;;5.38;56.00;98423.91;5098761;28;19947;-56
2023/03/16 09:29:47;;;;;;;;;;;;;;;5.58;56.05;98420.47;5111411;28;20273;-55
2023/03/16 09:32:15;;;;;;;;;;;;;;;5.82;53.13;98420.78;5113558;28;19924;-56
2023/03/16 09:34:43;;;;;;;;;;;;;;;5.90;52.24;98417.56;5099150;28;19934;-54
2023/03/16 09:37:11;;;;;;;;;;;;;;;6.04;52.47;98422.19;5102443;28;19924;-56
2023/03/16 09:39:40;;;;;;;;;;;;;;;6.20;51.61;98417.59;5105251;28;19924;-55
2023/03/16 09:42:09;;;;;;;;;;;;;;;6.11;50.76;98416.50;5098346;28;19935;-55
2023/03/16 09:44:39;;;;;;;;;;;;;;;6.18;51.93;98416.25;5104834;28;19924;-55
2023/03/16 09:47:07;;;;;;;;;;;;;;;6.20;51.27;98412.22;5078423;28;19928;-55
2023/03/16 09:49:36;;;;;;;;;;;;;;;6.28;49.55;98417.06;5099715;28;19927;-54
2023/03/16 09:52:06;;;;;;;;;;;;;;;6.45;48.16;98421.38;5106581;28;19924;-55
2023/03/16 09:54:37;;;;;;;;;;;;;;;6.59;49.33;98416.22;5101330;28;19982;-55
2023/03/16 10:03:18;;;;;;;;;;;;;;;6.66;48.40;98420.25;5107045;28;19931;-56
2023/03/16 10:05:46;;;;;;;;;;;;;;;6.69;48.42;98419.69;5094833;28;19928;-55
2023/03/16 10:08:17;;;;;;;;;;;;;;;6.83;48.50;98409.94;5099455;28;20548;-55
2023/03/16 10:10:54;;;;;;;;;;;;;;;6.76;48.60;98408.59;5083042;28;20014;-55
2023/03/16 10:13:26;;;;;;;;;;;;;;;6.34;48.15;98406.25;5095772;28;20294;-55
2023/03/16 10:15:54;;;;;;;;;;;;;;;6.56;48.90;98399.50;5085146;28;19967;-55
2023/03/16 10:18:23;;;;;;;;;;;;;;;6.46;49.57;98402.19;5103686;28;19977;-55
2023/03/16 10:20:51;;;;;;;;;;;;;;;6.55;48.51;98386.25;5083334;28;20312;-55
2023/03/16 10:23:20;;;;;;;;;;;;;;;7.02;49.11;98385.84;5107479;28;19963;-54
2023/03/16 10:25:48;;;;;;;;;;;;;;;7.42;48.00;98394.03;5106848;28;20018;-57
2023/03/16 10:28:17;;;;;;;;;;;;;;;7.54;44.53;98387.19;5104069;28;19931;-54
2023/03/16 10:30:46;;;;;;;;;;;;;;;7.45;45.53;98383.47;5104700;28;19939;-55
2023/03/16 10:33:18;;;;;;;;;;;;;;;7.34;45.14;98371.91;5107025;28;19924;-56
2023/03/16 10:35:48;;;;;;;;;;;;;;;7.77;46.10;98380.28;5099936;28;20336;-55
2023/03/16 10:38:26;;;;;;;;;;;;;;;7.79;45.71;98370.00;5101123;28;21602;-55
2023/03/16 10:40:56;;;;;;;;;;;;;;;7.99;43.95;98370.94;5097353;28;19928;-55
2023/03/16 10:43:28;;;;;;;;;;;;;;;7.93;43.60;98372.06;5109331;28;19959;-55
2023/03/16 10:46:02;;;;;;;;;;;;;;;8.21;43.22;98363.19;5100793;28;19924;-55
2023/03/16 10:48:32;;;;;;;;;;;;;;;8.28;42.36;98363.66;5112426;28;19924;-55
2023/03/16 10:51:01;;;;;;;;;;;;;;;8.12;42.48;98354.06;5102612;28;19925;-56
2023/03/16 10:53:29;;;;;;;;;;;;;;;8.16;43.11;98360.53;5076746;28;19924;-55
2023/03/16 10:55:57;;;;;;;;;;;;;;;8.33;42.69;98355.47;5105855;28;19969;-55
2023/03/16 10:58:26;;;;;;;;;;;;;;;8.21;42.59;98357.78;5110586;28;19969;-55
2023/03/16 11:00:58;;;;;;;;;;;;;;;8.19;43.81;98362.63;5100931;28;19924;-55
2023/03/16 11:03:30;;;;;;;;;;;;;;;8.00;42.73;98359.03;5104239;28;20281;-56
2023/03/16 11:05:59;;;;;;;;;;;;;;;7.91;42.19;98350.72;5097829;28;19931;-56
2023/03/16 11:08:27;;;;;;;;;;;;;;;7.96;43.52;98349.88;5086586;28;19924;-56
2023/03/16 11:10:57;;;;;;;;;;;;;;;7.99;43.21;98349.28;5097247;28;20394;-55
2023/03/16 11:13:33;;;;;;;;;;;;;;;8.17;42.46;98354.00;5075983;28;19924;-55
2023/03/16 11:16:01;;;;;;;;;;;;;;;8.18;43.07;98341.28;5072841;28;19932;-56
2023/03/16 11:18:31;;;;;;;;;;;;;;;8.25;42.51;98353.38;5100143;28;19928;-56
2023/03/16 11:21:03;;;;;;;;;;;;;;;7.76;43.67;98362.44;5109047;28;19934;-55
2023/03/16 11:23:33;;;;;;;;;;;;;;;7.76;43.67;98346.22;5091946;28;19959;-56
2023/03/16 11:26:02;;;;;;;;;;;;;;;8.00;43.61;98354.44;5098647;28;19955;-58
2023/03/16 11:28:32;;;;;;;;;;;;;;;8.00;42.40;98346.31;5107552;28;19923;-58
2023/03/16 11:31:02;;;;;;;;;;;;;;;7.94;42.86;98342.03;5101555;28;19927;-57
2023/03/16 11:33:33;;;;;;;;;;;;;;;8.04;43.12;98335.72;5096602;28;19924;-58
2023/03/16 11:36:04;;;;;;;;;;;;;;;8.05;42.76;98340.06;5096997;28;19931;-55
2023/03/16 11:38:34;;;;;;;;;;;;;;;8.31;42.62;98330.59;5094867;28;19928;-56
2023/03/16 11:41:03;;;;;;;;;;;;;;;8.00;43.21;98329.28;5101972;28;19923;-58
2023/03/16 11:43:44;;;;;;;;;;;;;;;7.83;42.65;98335.09;5102274;28;19924;-56
2023/03/16 11:46:15;;;;;;;;;;;;;;;8.18;43.39;98333.97;5094734;28;19952;-56
2023/03/16 11:48:46;;;;;;;;;;;;;;;8.33;42.66;98323.00;5103514;28;19928;-59
2023/03/16 11:51:17;;;;;;;;;;;;;;;8.59;42.10;98317.34;5101690;28;19954;-56
2023/03/16 11:53:52;;;;;;;;;;;;;;;8.58;42.10;98313.03;5102507;28;19954;-57
2023/03/16 11:56:29;;;;;;;;;;;;;;;8.47;41.10;98317.75;5095734;28;19934;-56
2023/03/16 11:59:01;;;;;;;;;;;;;;;8.65;41.41;98324.31;5093653;28;19939;-56
2023/03/16 12:01:31;;;;;;;;;;;;;;;8.75;41.76;98318.78;5088508;28;19935;-55
2023/03/16 12:04:08;;;;;;;;;;;;;;;8.66;40.89;98309.66;5096726;28;19945;-56
2023/03/16 12:06:40;;;;;;;;;;;;;;;8.22;39.88;98316.06;5102983;28;19955;-55
2023/03/16 12:09:13;;;;;;;;;;;;;;;8.23;41.01;98306.03;5099589;28;20369;-55
2023/03/16 12:11:42;;;;;;;;;;;;;;;8.35;40.27;98303.75;5103486;28;19930;-56
2023/03/16 12:14:14;;;;;;;;;;;;;;;8.31;40.20;98305.41;5096031;28;19928;-56
2023/03/16 12:16:44;;;;;;;;;;;;;;;8.48;39.26;98310.44;5083061;28;19924;-56
2023/03/16 12:19:20;;;;;;;;;;;;;;;8.22;40.10;98299.81;5094759;28;19939;-56
2023/03/16 12:21:49;;;;;;;;;;;;;;;8.15;41.02;98288.53;5090903;28;19931;-56
2023/03/16 12:24:18;;;;;;;;;;;;;;;8.30;41.14;98291.06;5107440;28;19924;-55
2023/03/16 12:26:48;;;;;;;;;;;;;;;8.57;41.76;98287.81;5097232;28;19935;-56
2023/03/16 12:29:19;;;;;;;;;;;;;;;8.57;41.96;98279.69;5100420;28;19953;-56
2023/03/16 12:31:49;;;;;;;;;;;;;;;8.62;41.82;98276.13;5095977;28;19980;-56
2023/03/16 12:34:23;;;;;;;;;;;;;;;8.81;40.65;98276.19;5095543;28;19931;-56
2023/03/16 12:37:06;;;;;;;;;;;;;;;8.70;40.80;98272.78;5075682;28;20001;-56
2023/03/16 12:39:42;;;;;;;;;;;;;;;8.73;41.08;98274.91;5100849;28;19928;-56
2023/03/16 12:42:15;;;;;;;;;;;;;;;8.79;41.36;98270.22;5101888;28;19989;-56
2023/03/16 12:44:45;;;;;;;;;;;;;;;8.80;41.02;98272.66;5100340;28;20499;-56
2023/03/16 12:47:15;;;;;;;;;;;;;;;8.44;42.40;98260.66;5098004;28;19932;-56
2023/03/16 12:49:44;;;;;;;;;;;;;;;8.87;42.19;98261.47;5095477;28;20280;-56
2023/03/16 12:52:14;;;;;;;;;;;;;;;8.88;41.84;98258.44;5078297;28;20215;-57
2023/03/16 12:54:52;;;;;;;;;;;;;;;9.06;41.21;98245.22;5097889;28;19961;-58
2023/03/16 12:57:21;;;;;;;;;;;;;;;9.00;41.78;98246.38;5103165;28;19934;-56
2023/03/16 12:59:50;;;;;;;;;;;;;;;9.08;41.52;98253.84;5104128;28;19935;-58
2023/03/16 13:02:19;;;;;;;;;;;;;;;8.87;39.65;98246.00;5089301;28;19928;-56
2023/03/16 13:04:48;;;;;;;;;;;;;;;8.82;41.05;98237.94;5104845;28;19962;-58
2023/03/16 13:07:19;;;;;;;;;;;;;;;8.97;41.27;98245.06;5102941;28;20288;-57
2023/03/16 13:09:48;;;;;;;;;;;;;;;8.58;40.42;98248.84;5105797;28;20051;-56
2023/03/16 13:12:22;;;;;;;;;;;;;;;8.71;40.12;98241.09;5104045;28;19928;-57
2023/03/16 13:14:53;;;;;;;;;;;;;;;8.62;39.99;98240.91;5097116;28;20262;-55